Terminal Aerodrome Forecast
Issued by NWS

Home | Current Version | Previous Version | Text Only | Print | Product List | Glossary On
Versions: 1 2 3 4 5 6 7 8 9 10 11 12 13 14 15 16 17
000
FTUS41 KLWX 252320
TAFMTN
TAF
KMTN 252320Z 2600/2624 27010KT P6SM FEW200
     FM260100 28005KT P6SM FEW200
     FM260600 VRB03KT P6SM FEW200
     FM261500 26008G16KT P6SM SCT070
     FM262000 20008G16KT P6SM SCT070
      AMD NOT SKED 2602/2612=

USA.gov is the U.S. government's official web portal to all federal, state and local government web resources and services.